sensor_id;sensor_type;location;lat;lon;timestamp;P1;durP1;ratioP1;P2;durP2;ratioP2
76155;SDS011;64906;51.290;7.348;2022-11-20T00:01:37;21.03;;;14.63;;
76155;SDS011;64906;51.290;7.348;2022-11-20T00:04:02;21.60;;;14.93;;
76155;SDS011;64906;51.290;7.348;2022-11-20T00:06:28;21.05;;;14.43;;
76155;SDS011;64906;51.290;7.348;2022-11-20T00:08:55;20.42;;;14.35;;
76155;SDS011;64906;51.290;7.348;2022-11-20T00:11:22;20.55;;;14.40;;
76155;SDS011;64906;51.290;7.348;2022-11-20T00:13:49;19.33;;;13.50;;
76155;SDS011;64906;51.290;7.348;2022-11-20T00:16:18;21.92;;;13.35;;
76155;SDS011;64906;51.290;7.348;2022-11-20T00:18:45;18.25;;;12.95;;
76155;SDS011;64906;51.290;7.348;2022-11-20T00:21:12;19.77;;;13.55;;
76155;SDS011;64906;51.290;7.348;2022-11-20T00:23:39;20.33;;;15.45;;
76155;SDS011;64906;51.290;7.348;2022-11-20T00:26:09;21.77;;;13.85;;
76155;SDS011;64906;51.290;7.348;2022-11-20T00:28:36;19.35;;;15.00;;
76155;SDS011;64906;51.290;7.348;2022-11-20T00:31:02;17.70;;;12.18;;
76155;SDS011;64906;51.290;7.348;2022-11-20T00:33:29;16.75;;;12.02;;
76155;SDS011;64906;51.290;7.348;2022-11-20T00:35:58;16.17;;;11.40;;
76155;SDS011;64906;51.290;7.348;2022-11-20T00:38:29;17.13;;;12.15;;
76155;SDS011;64906;51.290;7.348;2022-11-20T00:40:58;17.52;;;11.60;;
76155;SDS011;64906;51.290;7.348;2022-11-20T00:43:28;17.88;;;11.90;;
76155;SDS011;64906;51.290;7.348;2022-11-20T00:45:57;19.30;;;12.40;;
76155;SDS011;64906;51.290;7.348;2022-11-20T00:48:23;16.83;;;11.45;;
76155;SDS011;64906;51.290;7.348;2022-11-20T00:50:49;17.88;;;11.40;;
76155;SDS011;64906;51.290;7.348;2022-11-20T00:53:14;16.83;;;12.47;;
76155;SDS011;64906;51.290;7.348;2022-11-20T00:55:39;17.10;;;11.93;;
76155;SDS011;64906;51.290;7.348;2022-11-20T00:58:05;15.43;;;10.43;;
76155;SDS011;64906;51.290;7.348;2022-11-20T01:00:30;14.90;;;10.00;;
76155;SDS011;64906;51.290;7.348;2022-11-20T01:02:55;14.20;;;10.32;;
76155;SDS011;64906;51.290;7.348;2022-11-20T01:05:21;14.57;;;10.18;;
76155;SDS011;64906;51.290;7.348;2022-11-20T01:07:46;17.17;;;10.73;;
76155;SDS011;64906;51.290;7.348;2022-11-20T01:10:11;14.07;;;9.77;;
76155;SDS011;64906;51.290;7.348;2022-11-20T01:12:37;14.27;;;9.60;;
76155;SDS011;64906;51.290;7.348;2022-11-20T01:15:02;15.03;;;9.90;;
76155;SDS011;64906;51.290;7.348;2022-11-20T01:17:27;16.38;;;9.98;;
76155;SDS011;64906;51.290;7.348;2022-11-20T01:19:53;13.73;;;9.20;;
76155;SDS011;64906;51.290;7.348;2022-11-20T01:22:18;14.00;;;9.03;;
76155;SDS011;64906;51.290;7.348;2022-11-20T01:24:43;14.23;;;9.57;;
76155;SDS011;64906;51.290;7.348;2022-11-20T01:27:09;13.73;;;9.23;;
76155;SDS011;64906;51.290;7.348;2022-11-20T01:29:34;14.13;;;9.47;;
76155;SDS011;64906;51.290;7.348;2022-11-20T01:31:59;14.50;;;9.00;;
76155;SDS011;64906;51.290;7.348;2022-11-20T01:34:24;13.43;;;8.90;;
76155;SDS011;64906;51.290;7.348;2022-11-20T01:36:50;11.20;;;8.35;;
76155;SDS011;64906;51.290;7.348;2022-11-20T01:39:18;13.85;;;8.65;;
76155;SDS011;64906;51.290;7.348;2022-11-20T01:41:45;12.18;;;8.18;;
76155;SDS011;64906;51.290;7.348;2022-11-20T01:44:49;11.43;;;8.07;;
76155;SDS011;64906;51.290;7.348;2022-11-20T01:50:18;12.23;;;7.90;;
76155;SDS011;64906;51.290;7.348;2022-11-20T01:53:13;10.95;;;7.45;;
76155;SDS011;64906;51.290;7.348;2022-11-20T01:55:41;12.15;;;7.63;;
76155;SDS011;64906;51.290;7.348;2022-11-20T01:58:10;10.80;;;7.15;;
76155;SDS011;64906;51.290;7.348;2022-11-20T02:00:37;11.98;;;7.97;;
76155;SDS011;64906;51.290;7.348;2022-11-20T02:03:07;12.17;;;7.77;;
76155;SDS011;64906;51.290;7.348;2022-11-20T02:10:51;11.27;;;7.33;;
76155;SDS011;64906;51.290;7.348;2022-11-20T02:13:16;10.57;;;6.93;;
76155;SDS011;64906;51.290;7.348;2022-11-20T02:16:01;11.25;;;7.10;;
76155;SDS011;64906;51.290;7.348;2022-11-20T02:18:28;11.85;;;6.90;;
76155;SDS011;64906;51.290;7.348;2022-11-20T02:20:55;13.07;;;6.80;;
76155;SDS011;64906;51.290;7.348;2022-11-20T02:26:05;9.02;;;6.28;;
76155;SDS011;64906;51.290;7.348;2022-11-20T02:28:34;9.38;;;6.15;;
76155;SDS011;64906;51.290;7.348;2022-11-20T02:31:00;9.25;;;6.32;;
76155;SDS011;64906;51.290;7.348;2022-11-20T02:33:25;10.27;;;6.53;;
76155;SDS011;64906;51.290;7.348;2022-11-20T02:35:51;9.53;;;6.53;;
76155;SDS011;64906;51.290;7.348;2022-11-20T02:38:16;9.13;;;6.00;;
76155;SDS011;64906;51.290;7.348;2022-11-20T02:40:42;9.40;;;5.75;;
76155;SDS011;64906;51.290;7.348;2022-11-20T02:43:07;9.57;;;5.90;;
76155;SDS011;64906;51.290;7.348;2022-11-20T02:45:33;10.33;;;6.40;;
76155;SDS011;64906;51.290;7.348;2022-11-20T02:47:58;9.15;;;6.05;;
76155;SDS011;64906;51.290;7.348;2022-11-20T02:50:23;9.13;;;5.73;;
76155;SDS011;64906;51.290;7.348;2022-11-20T02:52:49;9.67;;;6.77;;
76155;SDS011;64906;51.290;7.348;2022-11-20T02:55:14;8.93;;;5.80;;
76155;SDS011;64906;51.290;7.348;2022-11-20T02:57:39;8.90;;;5.63;;
76155;SDS011;64906;51.290;7.348;2022-11-20T03:00:05;9.20;;;5.87;;
76155;SDS011;64906;51.290;7.348;2022-11-20T03:02:31;8.73;;;5.55;;
76155;SDS011;64906;51.290;7.348;2022-11-20T03:04:57;9.68;;;6.57;;
76155;SDS011;64906;51.290;7.348;2022-11-20T03:07:23;8.80;;;5.70;;
76155;SDS011;64906;51.290;7.348;2022-11-20T03:09:48;9.13;;;5.43;;
76155;SDS011;64906;51.290;7.348;2022-11-20T03:12:14;7.80;;;4.97;;
76155;SDS011;64906;51.290;7.348;2022-11-20T03:14:39;8.40;;;5.33;;
76155;SDS011;64906;51.290;7.348;2022-11-20T03:17:04;8.57;;;5.37;;
76155;SDS011;64906;51.290;7.348;2022-11-20T03:19:30;8.53;;;5.33;;
76155;SDS011;64906;51.290;7.348;2022-11-20T03:21:55;8.18;;;5.03;;
76155;SDS011;64906;51.290;7.348;2022-11-20T03:24:20;8.00;;;5.13;;
76155;SDS011;64906;51.290;7.348;2022-11-20T03:26:46;9.32;;;5.45;;
76155;SDS011;64906;51.290;7.348;2022-11-20T03:29:11;7.60;;;4.40;;
76155;SDS011;64906;51.290;7.348;2022-11-20T03:31:37;8.00;;;4.70;;
76155;SDS011;64906;51.290;7.348;2022-11-20T03:34:08;7.85;;;5.05;;
76155;SDS011;64906;51.290;7.348;2022-11-20T03:36:35;7.07;;;4.70;;
76155;SDS011;64906;51.290;7.348;2022-11-20T03:39:06;7.93;;;5.10;;
76155;SDS011;64906;51.290;7.348;2022-11-20T03:41:35;9.23;;;5.57;;
76155;SDS011;64906;51.290;7.348;2022-11-20T03:44:03;8.45;;;5.40;;
76155;SDS011;64906;51.290;7.348;2022-11-20T03:46:30;7.55;;;4.50;;
76155;SDS011;64906;51.290;7.348;2022-11-20T03:48:56;7.55;;;4.43;;
76155;SDS011;64906;51.290;7.348;2022-11-20T03:51:22;6.72;;;4.38;;
76155;SDS011;64906;51.290;7.348;2022-11-20T03:53:50;7.90;;;4.60;;
76155;SDS011;64906;51.290;7.348;2022-11-20T03:56:18;7.10;;;4.22;;
76155;SDS011;64906;51.290;7.348;2022-11-20T03:58:45;7.75;;;4.75;;
76155;SDS011;64906;51.290;7.348;2022-11-20T04:01:14;7.33;;;4.87;;
76155;SDS011;64906;51.290;7.348;2022-11-20T04:03:44;7.35;;;4.38;;
76155;SDS011;64906;51.290;7.348;2022-11-20T04:06:17;7.68;;;4.57;;
76155;SDS011;64906;51.290;7.348;2022-11-20T04:08:44;6.97;;;4.47;;
76155;SDS011;64906;51.290;7.348;2022-11-20T04:11:10;7.65;;;4.72;;
76155;SDS011;64906;51.290;7.348;2022-11-20T04:13:36;6.68;;;4.10;;
76155;SDS011;64906;51.290;7.348;2022-11-20T04:16:02;7.00;;;4.20;;
76155;SDS011;64906;51.290;7.348;2022-11-20T04:18:28;6.93;;;4.55;;
76155;SDS011;64906;51.290;7.348;2022-11-20T04:20:53;6.80;;;4.47;;
76155;SDS011;64906;51.290;7.348;2022-11-20T04:23:18;7.07;;;4.30;;
76155;SDS011;64906;51.290;7.348;2022-11-20T04:25:43;6.90;;;4.00;;
76155;SDS011;64906;51.290;7.348;2022-11-20T04:28:09;7.30;;;4.10;;
76155;SDS011;64906;51.290;7.348;2022-11-20T04:30:34;7.18;;;4.03;;
76155;SDS011;64906;51.290;7.348;2022-11-20T04:32:59;6.30;;;3.93;;
76155;SDS011;64906;51.290;7.348;2022-11-20T04:35:25;7.50;;;4.07;;
76155;SDS011;64906;51.290;7.348;2022-11-20T04:37:53;6.63;;;3.90;;
76155;SDS011;64906;51.290;7.348;2022-11-20T04:40:18;7.00;;;4.07;;
76155;SDS011;64906;51.290;7.348;2022-11-20T04:42:44;6.97;;;4.33;;
76155;SDS011;64906;51.290;7.348;2022-11-20T04:45:09;6.63;;;3.93;;
76155;SDS011;64906;51.290;7.348;2022-11-20T04:47:34;6.30;;;3.65;;
76155;SDS011;64906;51.290;7.348;2022-11-20T04:49:59;7.07;;;4.00;;
76155;SDS011;64906;51.290;7.348;2022-11-20T04:52:25;6.83;;;4.17;;
76155;SDS011;64906;51.290;7.348;2022-11-20T04:54:50;6.37;;;4.00;;
76155;SDS011;64906;51.290;7.348;2022-11-20T04:57:17;6.30;;;4.00;;
76155;SDS011;64906;51.290;7.348;2022-11-20T04:59:43;6.93;;;4.07;;
76155;SDS011;64906;51.290;7.348;2022-11-20T05:02:08;7.82;;;4.32;;
76155;SDS011;64906;51.290;7.348;2022-11-20T05:04:34;7.35;;;3.95;;
76155;SDS011;64906;51.290;7.348;2022-11-20T05:06:59;7.77;;;4.27;;
76155;SDS011;64906;51.290;7.348;2022-11-20T05:09:24;6.60;;;3.80;;
76155;SDS011;64906;51.290;7.348;2022-11-20T05:11:49;7.17;;;3.87;;
76155;SDS011;64906;51.290;7.348;2022-11-20T05:14:15;6.13;;;3.40;;
76155;SDS011;64906;51.290;7.348;2022-11-20T05:16:40;6.60;;;3.93;;
76155;SDS011;64906;51.290;7.348;2022-11-20T05:19:05;6.63;;;4.13;;
76155;SDS011;64906;51.290;7.348;2022-11-20T05:21:31;6.77;;;3.70;;
76155;SDS011;64906;51.290;7.348;2022-11-20T05:23:57;5.78;;;3.42;;
76155;SDS011;64906;51.290;7.348;2022-11-20T05:26:22;7.15;;;3.88;;
76155;SDS011;64906;51.290;7.348;2022-11-20T05:28:48;6.25;;;3.60;;
76155;SDS011;64906;51.290;7.348;2022-11-20T05:31:15;6.72;;;3.25;;
76155;SDS011;64906;51.290;7.348;2022-11-20T05:33:45;6.15;;;3.40;;
76155;SDS011;64906;51.290;7.348;2022-11-20T05:36:11;7.60;;;3.70;;
76155;SDS011;64906;51.290;7.348;2022-11-20T05:38:38;6.32;;;3.67;;
76155;SDS011;64906;51.290;7.348;2022-11-20T05:41:08;6.75;;;3.85;;
76155;SDS011;64906;51.290;7.348;2022-11-20T05:43:35;6.68;;;3.42;;
76155;SDS011;64906;51.290;7.348;2022-11-20T05:46:02;6.40;;;3.30;;
76155;SDS011;64906;51.290;7.348;2022-11-20T05:48:29;6.35;;;3.80;;
76155;SDS011;64906;51.290;7.348;2022-11-20T05:50:56;5.82;;;3.30;;
76155;SDS011;64906;51.290;7.348;2022-11-20T05:53:22;6.32;;;3.65;;
76155;SDS011;64906;51.290;7.348;2022-11-20T05:55:55;6.07;;;3.37;;
76155;SDS011;64906;51.290;7.348;2022-11-20T05:58:24;6.30;;;3.50;;
76155;SDS011;64906;51.290;7.348;2022-11-20T06:00:49;7.35;;;4.13;;
76155;SDS011;64906;51.290;7.348;2022-11-20T06:03:15;6.05;;;3.55;;
76155;SDS011;64906;51.290;7.348;2022-11-20T06:05:40;7.20;;;3.83;;
76155;SDS011;64906;51.290;7.348;2022-11-20T06:08:05;6.63;;;3.63;;
76155;SDS011;64906;51.290;7.348;2022-11-20T06:10:30;7.20;;;4.07;;
76155;SDS011;64906;51.290;7.348;2022-11-20T06:12:59;6.53;;;3.70;;
76155;SDS011;64906;51.290;7.348;2022-11-20T06:15:24;6.47;;;4.00;;
76155;SDS011;64906;51.290;7.348;2022-11-20T06:17:53;6.93;;;3.92;;
76155;SDS011;64906;51.290;7.348;2022-11-20T06:20:20;6.32;;;3.65;;
76155;SDS011;64906;51.290;7.348;2022-11-20T06:22:46;6.68;;;4.10;;
76155;SDS011;64906;51.290;7.348;2022-11-20T06:25:11;6.53;;;3.93;;
76155;SDS011;64906;51.290;7.348;2022-11-20T06:27:37;6.68;;;3.92;;
76155;SDS011;64906;51.290;7.348;2022-11-20T06:30:02;6.70;;;3.67;;
76155;SDS011;64906;51.290;7.348;2022-11-20T06:32:28;6.03;;;3.63;;
76155;SDS011;64906;51.290;7.348;2022-11-20T06:34:53;6.27;;;3.60;;
76155;SDS011;64906;51.290;7.348;2022-11-20T06:37:19;6.33;;;3.67;;
76155;SDS011;64906;51.290;7.348;2022-11-20T06:39:44;7.63;;;4.00;;
76155;SDS011;64906;51.290;7.348;2022-11-20T06:42:09;6.33;;;3.73;;
76155;SDS011;64906;51.290;7.348;2022-11-20T06:44:34;6.87;;;3.63;;
76155;SDS011;64906;51.290;7.348;2022-11-20T06:47:00;6.33;;;3.70;;
76155;SDS011;64906;51.290;7.348;2022-11-20T06:49:25;6.90;;;4.50;;
76155;SDS011;64906;51.290;7.348;2022-11-20T06:51:51;6.20;;;3.60;;
76155;SDS011;64906;51.290;7.348;2022-11-20T06:54:16;6.07;;;3.67;;
76155;SDS011;64906;51.290;7.348;2022-11-20T06:56:41;5.67;;;3.40;;
76155;SDS011;64906;51.290;7.348;2022-11-20T06:59:07;6.17;;;3.60;;
76155;SDS011;64906;51.290;7.348;2022-11-20T07:01:32;6.15;;;3.60;;
76155;SDS011;64906;51.290;7.348;2022-11-20T07:03:57;6.10;;;3.50;;
76155;SDS011;64906;51.290;7.348;2022-11-20T07:06:22;6.23;;;3.43;;
76155;SDS011;64906;51.290;7.348;2022-11-20T07:08:49;5.77;;;3.33;;
76155;SDS011;64906;51.290;7.348;2022-11-20T07:11:16;6.13;;;3.50;;
76155;SDS011;64906;51.290;7.348;2022-11-20T07:13:42;6.07;;;3.30;;
76155;SDS011;64906;51.290;7.348;2022-11-20T07:16:07;6.17;;;3.70;;
76155;SDS011;64906;51.290;7.348;2022-11-20T07:18:33;6.40;;;3.35;;
76155;SDS011;64906;51.290;7.348;2022-11-20T07:21:02;6.15;;;3.65;;
76155;SDS011;64906;51.290;7.348;2022-11-20T07:23:30;6.75;;;3.70;;
76155;SDS011;64906;51.290;7.348;2022-11-20T07:25:55;6.47;;;3.65;;
76155;SDS011;64906;51.290;7.348;2022-11-20T07:28:20;6.33;;;3.73;;
76155;SDS011;64906;51.290;7.348;2022-11-20T07:30:49;5.87;;;3.67;;
76155;SDS011;64906;51.290;7.348;2022-11-20T07:33:16;6.57;;;4.20;;
76155;SDS011;64906;51.290;7.348;2022-11-20T07:35:41;6.20;;;3.40;;
76155;SDS011;64906;51.290;7.348;2022-11-20T07:38:06;6.50;;;3.57;;
76155;SDS011;64906;51.290;7.348;2022-11-20T07:40:33;6.32;;;3.83;;
76155;SDS011;64906;51.290;7.348;2022-11-20T07:42:58;5.78;;;3.17;;
76155;SDS011;64906;51.290;7.348;2022-11-20T07:45:24;6.07;;;3.10;;
76155;SDS011;64906;51.290;7.348;2022-11-20T07:47:49;6.40;;;3.42;;
76155;SDS011;64906;51.290;7.348;2022-11-20T07:50:16;5.78;;;3.30;;
76155;SDS011;64906;51.290;7.348;2022-11-20T07:52:42;5.25;;;3.10;;
76155;SDS011;64906;51.290;7.348;2022-11-20T07:55:08;6.45;;;3.65;;
76155;SDS011;64906;51.290;7.348;2022-11-20T07:57:34;6.40;;;3.47;;
76155;SDS011;64906;51.290;7.348;2022-11-20T07:59:59;5.50;;;3.50;;
76155;SDS011;64906;51.290;7.348;2022-11-20T08:02:24;5.70;;;3.70;;
76155;SDS011;64906;51.290;7.348;2022-11-20T08:04:50;5.78;;;3.42;;
76155;SDS011;64906;51.290;7.348;2022-11-20T08:07:15;6.33;;;3.57;;
76155;SDS011;64906;51.290;7.348;2022-11-20T08:09:40;6.13;;;3.85;;
76155;SDS011;64906;51.290;7.348;2022-11-20T08:12:06;6.57;;;3.53;;
76155;SDS011;64906;51.290;7.348;2022-11-20T08:14:50;8.13;;;3.40;;
76155;SDS011;64906;51.290;7.348;2022-11-20T08:17:15;10.33;;;6.13;;
76155;SDS011;64906;51.290;7.348;2022-11-20T08:19:40;11.53;;;7.40;;
76155;SDS011;64906;51.290;7.348;2022-11-20T08:22:06;15.57;;;10.43;;
76155;SDS011;64906;51.290;7.348;2022-11-20T08:24:31;20.13;;;13.73;;
76155;SDS011;64906;51.290;7.348;2022-11-20T08:26:57;20.03;;;13.70;;
76155;SDS011;64906;51.290;7.348;2022-11-20T08:29:24;70.30;;;53.00;;
76155;SDS011;64906;51.290;7.348;2022-11-20T08:31:49;127.13;;;100.32;;
76155;SDS011;64906;51.290;7.348;2022-11-20T08:34:15;153.17;;;122.10;;
76155;SDS011;64906;51.290;7.348;2022-11-20T08:36:40;70.43;;;53.83;;
76155;SDS011;64906;51.290;7.348;2022-11-20T08:39:05;69.37;;;52.37;;
76155;SDS011;64906;51.290;7.348;2022-11-20T08:41:31;65.60;;;49.85;;
76155;SDS011;64906;51.290;7.348;2022-11-20T08:44:01;59.47;;;45.92;;
76155;SDS011;64906;51.290;7.348;2022-11-20T08:46:31;58.95;;;46.38;;
76155;SDS011;64906;51.290;7.348;2022-11-20T08:48:59;58.22;;;43.75;;
76155;SDS011;64906;51.290;7.348;2022-11-20T08:51:25;54.88;;;41.05;;
76155;SDS011;64906;51.290;7.348;2022-11-20T08:53:50;53.17;;;40.60;;
76155;SDS011;64906;51.290;7.348;2022-11-20T08:56:16;50.80;;;40.03;;
76155;SDS011;64906;51.290;7.348;2022-11-20T08:58:42;52.47;;;41.05;;
76155;SDS011;64906;51.290;7.348;2022-11-20T09:01:07;51.00;;;39.63;;
76155;SDS011;64906;51.290;7.348;2022-11-20T09:03:33;45.90;;;35.80;;
76155;SDS011;64906;51.290;7.348;2022-11-20T09:06:02;47.38;;;37.35;;
76155;SDS011;64906;51.290;7.348;2022-11-20T09:08:29;48.45;;;37.85;;
76155;SDS011;64906;51.290;7.348;2022-11-20T09:10:55;52.60;;;39.53;;
76155;SDS011;64906;51.290;7.348;2022-11-20T09:13:22;49.30;;;38.55;;
76155;SDS011;64906;51.290;7.348;2022-11-20T09:15:59;50.40;;;39.42;;
76155;SDS011;64906;51.290;7.348;2022-11-20T09:18:27;52.45;;;40.42;;
76155;SDS011;64906;51.290;7.348;2022-11-20T09:20:57;50.13;;;38.42;;
76155;SDS011;64906;51.290;7.348;2022-11-20T09:23:27;48.13;;;37.83;;
76155;SDS011;64906;51.290;7.348;2022-11-20T09:25:56;51.53;;;38.53;;
76155;SDS011;64906;51.290;7.348;2022-11-20T09:28:27;50.42;;;38.70;;
76155;SDS011;64906;51.290;7.348;2022-11-20T09:30:52;50.30;;;39.60;;
76155;SDS011;64906;51.290;7.348;2022-11-20T09:33:18;49.77;;;38.10;;
76155;SDS011;64906;51.290;7.348;2022-11-20T09:35:43;49.43;;;38.30;;
76155;SDS011;64906;51.290;7.348;2022-11-20T09:38:09;51.50;;;37.58;;
76155;SDS011;64906;51.290;7.348;2022-11-20T09:40:37;48.08;;;36.55;;
76155;SDS011;64906;51.290;7.348;2022-11-20T09:43:17;46.70;;;34.83;;
76155;SDS011;64906;51.290;7.348;2022-11-20T09:45:50;54.92;;;40.58;;
76155;SDS011;64906;51.290;7.348;2022-11-20T09:56:06;60.70;;;45.20;;
76155;SDS011;64906;51.290;7.348;2022-11-20T09:58:40;58.25;;;44.05;;
76155;SDS011;64906;51.290;7.348;2022-11-20T10:01:19;53.33;;;40.72;;
76155;SDS011;64906;51.290;7.348;2022-11-20T10:03:51;54.90;;;44.38;;
76155;SDS011;64906;51.290;7.348;2022-11-20T10:06:40;49.17;;;36.65;;
76155;SDS011;64906;51.290;7.348;2022-11-20T10:11:52;46.27;;;34.50;;
76155;SDS011;64906;51.290;7.348;2022-11-20T10:14:30;44.33;;;33.35;;
76155;SDS011;64906;51.290;7.348;2022-11-20T10:20:18;39.22;;;30.55;;
76155;SDS011;64906;51.290;7.348;2022-11-20T10:22:56;39.72;;;28.90;;
76155;SDS011;64906;51.290;7.348;2022-11-20T10:30:57;39.80;;;29.20;;
76155;SDS011;64906;51.290;7.348;2022-11-20T10:33:26;54.20;;;40.13;;
76155;SDS011;64906;51.290;7.348;2022-11-20T10:38:36;56.13;;;43.80;;
76155;SDS011;64906;51.290;7.348;2022-11-20T10:41:05;58.67;;;43.05;;
76155;SDS011;64906;51.290;7.348;2022-11-20T10:43:51;55.20;;;42.17;;
76155;SDS011;64906;51.290;7.348;2022-11-20T10:46:40;55.30;;;41.92;;
76155;SDS011;64906;51.290;7.348;2022-11-20T10:49:11;53.65;;;41.05;;
76155;SDS011;64906;51.290;7.348;2022-11-20T10:55:09;51.97;;;38.60;;
76155;SDS011;64906;51.290;7.348;2022-11-20T11:00:20;46.20;;;35.30;;
76155;SDS011;64906;51.290;7.348;2022-11-20T11:02:47;46.72;;;34.92;;
76155;SDS011;64906;51.290;7.348;2022-11-20T11:05:20;47.10;;;35.42;;
76155;SDS011;64906;51.290;7.348;2022-11-20T11:07:57;41.67;;;33.03;;
76155;SDS011;64906;51.290;7.348;2022-11-20T11:13:18;42.35;;;32.42;;
76155;SDS011;64906;51.290;7.348;2022-11-20T11:15:44;41.97;;;31.42;;
76155;SDS011;64906;51.290;7.348;2022-11-20T11:18:10;39.83;;;31.73;;
76155;SDS011;64906;51.290;7.348;2022-11-20T11:20:36;39.72;;;30.58;;
76155;SDS011;64906;51.290;7.348;2022-11-20T11:23:02;44.97;;;33.42;;
76155;SDS011;64906;51.290;7.348;2022-11-20T11:25:33;54.47;;;40.33;;
76155;SDS011;64906;51.290;7.348;2022-11-20T11:28:04;56.35;;;42.13;;
76155;SDS011;64906;51.290;7.348;2022-11-20T11:30:44;54.13;;;40.70;;
76155;SDS011;64906;51.290;7.348;2022-11-20T11:33:11;54.20;;;39.58;;
76155;SDS011;64906;51.290;7.348;2022-11-20T11:35:45;57.05;;;45.70;;
76155;SDS011;64906;51.290;7.348;2022-11-20T11:38:14;53.05;;;40.20;;
76155;SDS011;64906;51.290;7.348;2022-11-20T11:40:43;50.55;;;38.75;;
76155;SDS011;64906;51.290;7.348;2022-11-20T11:43:17;50.88;;;39.42;;
76155;SDS011;64906;51.290;7.348;2022-11-20T11:46:08;50.17;;;37.83;;
76155;SDS011;64906;51.290;7.348;2022-11-20T11:54:40;47.20;;;34.03;;
76155;SDS011;64906;51.290;7.348;2022-11-20T11:57:14;64.88;;;45.17;;
76155;SDS011;64906;51.290;7.348;2022-11-20T12:08:27;62.75;;;50.08;;
76155;SDS011;64906;51.290;7.348;2022-11-20T12:11:04;60.45;;;44.63;;
76155;SDS011;64906;51.290;7.348;2022-11-20T12:13:40;58.78;;;43.53;;
76155;SDS011;64906;51.290;7.348;2022-11-20T12:16:14;59.25;;;45.00;;
76155;SDS011;64906;51.290;7.348;2022-11-20T12:18:41;55.83;;;43.38;;
76155;SDS011;64906;51.290;7.348;2022-11-20T12:26:45;54.28;;;41.28;;
76155;SDS011;64906;51.290;7.348;2022-11-20T12:29:32;52.00;;;39.03;;
76155;SDS011;64906;51.290;7.348;2022-11-20T12:40:02;47.63;;;38.20;;
76155;SDS011;64906;51.290;7.348;2022-11-20T12:42:53;46.92;;;35.47;;
76155;SDS011;64906;51.290;7.348;2022-11-20T12:48:25;46.22;;;34.25;;
76155;SDS011;64906;51.290;7.348;2022-11-20T12:51:24;42.30;;;32.85;;
76155;SDS011;64906;51.290;7.348;2022-11-20T12:56:38;42.88;;;31.45;;
76155;SDS011;64906;51.290;7.348;2022-11-20T13:05:35;41.53;;;29.85;;
76155;SDS011;64906;51.290;7.348;2022-11-20T13:08:18;40.20;;;29.38;;
76155;SDS011;64906;51.290;7.348;2022-11-20T13:11:18;40.20;;;29.50;;
76155;SDS011;64906;51.290;7.348;2022-11-20T13:19:11;35.08;;;26.23;;
76155;SDS011;64906;51.290;7.348;2022-11-20T13:21:42;39.83;;;28.30;;
76155;SDS011;64906;51.290;7.348;2022-11-20T13:26:59;33.95;;;25.40;;
76155;SDS011;64906;51.290;7.348;2022-11-20T13:29:46;37.15;;;26.63;;
76155;SDS011;64906;51.290;7.348;2022-11-20T13:32:29;34.30;;;25.48;;
76155;SDS011;64906;51.290;7.348;2022-11-20T13:35:08;35.25;;;26.45;;
76155;SDS011;64906;51.290;7.348;2022-11-20T13:37:35;33.63;;;25.05;;
76155;SDS011;64906;51.290;7.348;2022-11-20T13:45:09;35.53;;;25.38;;
76155;SDS011;64906;51.290;7.348;2022-11-20T13:47:36;28.00;;;20.52;;
76155;SDS011;64906;51.290;7.348;2022-11-20T13:50:03;33.40;;;24.30;;
76155;SDS011;64906;51.290;7.348;2022-11-20T13:55:01;32.07;;;23.90;;
76155;SDS011;64906;51.290;7.348;2022-11-20T14:02:36;29.08;;;21.35;;
76155;SDS011;64906;51.290;7.348;2022-11-20T14:05:02;29.55;;;21.00;;
76155;SDS011;64906;51.290;7.348;2022-11-20T14:07:37;28.45;;;20.60;;
76155;SDS011;64906;51.290;7.348;2022-11-20T14:10:05;29.90;;;20.50;;
76155;SDS011;64906;51.290;7.348;2022-11-20T14:12:32;30.75;;;20.52;;
76155;SDS011;64906;51.290;7.348;2022-11-20T14:14:58;29.45;;;22.70;;
76155;SDS011;64906;51.290;7.348;2022-11-20T14:17:34;27.40;;;20.65;;
76155;SDS011;64906;51.290;7.348;2022-11-20T14:20:11;30.25;;;22.42;;
76155;SDS011;64906;51.290;7.348;2022-11-20T14:22:39;26.35;;;19.65;;
76155;SDS011;64906;51.290;7.348;2022-11-20T14:27:42;29.52;;;22.90;;
76155;SDS011;64906;51.290;7.348;2022-11-20T14:30:14;46.90;;;33.53;;
76155;SDS011;64906;51.290;7.348;2022-11-20T14:32:41;44.55;;;32.33;;
76155;SDS011;64906;51.290;7.348;2022-11-20T14:35:09;47.05;;;33.63;;
76155;SDS011;64906;51.290;7.348;2022-11-20T14:37:44;43.15;;;32.13;;
76155;SDS011;64906;51.290;7.348;2022-11-20T14:42:47;41.88;;;31.27;;
76155;SDS011;64906;51.290;7.348;2022-11-20T14:45:12;42.63;;;30.37;;
76155;SDS011;64906;51.290;7.348;2022-11-20T14:47:38;41.35;;;30.50;;
76155;SDS011;64906;51.290;7.348;2022-11-20T14:50:07;40.80;;;30.52;;
76155;SDS011;64906;51.290;7.348;2022-11-20T14:52:39;40.42;;;28.90;;
76155;SDS011;64906;51.290;7.348;2022-11-20T14:55:24;39.35;;;29.20;;
76155;SDS011;64906;51.290;7.348;2022-11-20T14:57:55;38.85;;;29.98;;
76155;SDS011;64906;51.290;7.348;2022-11-20T15:00:22;37.15;;;27.40;;
76155;SDS011;64906;51.290;7.348;2022-11-20T15:02:49;36.85;;;26.80;;
76155;SDS011;64906;51.290;7.348;2022-11-20T15:05:17;36.90;;;27.45;;
76155;SDS011;64906;51.290;7.348;2022-11-20T15:07:45;37.53;;;26.58;;
76155;SDS011;64906;51.290;7.348;2022-11-20T15:10:23;37.03;;;26.10;;
76155;SDS011;64906;51.290;7.348;2022-11-20T15:12:51;37.13;;;26.85;;
76155;SDS011;64906;51.290;7.348;2022-11-20T15:15:25;40.60;;;30.30;;
76155;SDS011;64906;51.290;7.348;2022-11-20T15:17:56;51.08;;;36.03;;
76155;SDS011;64906;51.290;7.348;2022-11-20T15:20:24;51.67;;;37.90;;
76155;SDS011;64906;51.290;7.348;2022-11-20T15:22:52;53.20;;;38.70;;
76155;SDS011;64906;51.290;7.348;2022-11-20T15:25:18;53.60;;;42.30;;
76155;SDS011;64906;51.290;7.348;2022-11-20T15:27:44;60.95;;;47.10;;
76155;SDS011;64906;51.290;7.348;2022-11-20T15:30:18;71.50;;;51.53;;
76155;SDS011;64906;51.290;7.348;2022-11-20T15:32:45;77.05;;;56.67;;
76155;SDS011;64906;51.290;7.348;2022-11-20T15:35:11;73.20;;;54.03;;
76155;SDS011;64906;51.290;7.348;2022-11-20T15:37:37;72.85;;;54.20;;
76155;SDS011;64906;51.290;7.348;2022-11-20T15:40:03;71.38;;;53.53;;
76155;SDS011;64906;51.290;7.348;2022-11-20T15:42:29;73.47;;;55.63;;
76155;SDS011;64906;51.290;7.348;2022-11-20T15:44:54;72.27;;;52.90;;
76155;SDS011;64906;51.290;7.348;2022-11-20T15:47:21;67.65;;;51.25;;
76155;SDS011;64906;51.290;7.348;2022-11-20T15:49:51;66.97;;;50.20;;
76155;SDS011;64906;51.290;7.348;2022-11-20T15:52:17;72.17;;;58.97;;
76155;SDS011;64906;51.290;7.348;2022-11-20T15:54:42;74.63;;;54.10;;
76155;SDS011;64906;51.290;7.348;2022-11-20T15:57:07;81.37;;;60.03;;
76155;SDS011;64906;51.290;7.348;2022-11-20T15:59:32;80.33;;;60.57;;
76155;SDS011;64906;51.290;7.348;2022-11-20T16:01:59;84.82;;;62.17;;
76155;SDS011;64906;51.290;7.348;2022-11-20T16:04:24;85.93;;;65.93;;
76155;SDS011;64906;51.290;7.348;2022-11-20T16:06:50;87.47;;;64.55;;
76155;SDS011;64906;51.290;7.348;2022-11-20T16:09:15;87.20;;;65.40;;
76155;SDS011;64906;51.290;7.348;2022-11-20T16:11:40;88.55;;;71.88;;
76155;SDS011;64906;51.290;7.348;2022-11-20T16:14:06;84.73;;;63.70;;
76155;SDS011;64906;51.290;7.348;2022-11-20T16:16:50;84.35;;;65.18;;
76155;SDS011;64906;51.290;7.348;2022-11-20T16:19:16;81.28;;;60.75;;
76155;SDS011;64906;51.290;7.348;2022-11-20T16:21:43;83.00;;;61.50;;
76155;SDS011;64906;51.290;7.348;2022-11-20T16:24:10;79.68;;;58.35;;
76155;SDS011;64906;51.290;7.348;2022-11-20T16:26:37;76.82;;;57.78;;
76155;SDS011;64906;51.290;7.348;2022-11-20T16:29:04;83.82;;;61.78;;